Dades meteomassalio
Diari Summary for Noviembre 5, 2017 Units:  Metric    English   Both
« Previous Day
Next Day »
Diari Semanal Mensual Anual Personalitzat
  Maxima: Minima: Mijana:
Temperatura: 16.1 °C 10.0 °C 12.7 °C
Rosada: 10.7 °C 4.6 °C 6.8 °C
Humitat: 84 % 51 % 68 %
Velocitat del vent: 68.5 km/h 22.5 km/h 43 km/h
Racha vent: 68.5 km/h - -
Vent:- - SW
Pressio: 1023.9 hPa 1015.1 hPa -
Pluja: 0.3 mm    
Historical Graphs
 
 
Tabular Data for Noviembre 5, 2017
Time Temperature Dew Point Pressure Wind Wind Speed Wind Gust Humidity Rainfall Rate (Hourly) solar Conditions
00:00 13.3 °C 10.7 °C 1015.1 hPa SW 22.5 km/h 22.5 km/h 84 % 0.0 mm 0.0 W/m2 CLR
00:05 13.3 °C 10.7 °C 1015.1 hPa SW 29.0 km/h 29.0 km/h 84 % 0.0 mm 0.0 W/m2 RA
00:10 13.3 °C 10.7 °C 1015.1 hPa SW 27.8 km/h 27.8 km/h 84 % 0.0 mm 0.0 W/m2 CLR
00:12 13.3 °C 10.7 °C 1015.1 hPa SW 25.7 km/h 25.7 km/h 84 % 0.0 mm 0.0 W/m2 CLR
00:17 13.3 °C 10.7 °C 1015.1 hPa SSW 31.5 km/h 31.5 km/h 84 % 0.0 mm 0.0 W/m2 CLR
00:22 12.8 °C 9.9 °C 1015.1 hPa WSW 31.5 km/h 31.5 km/h 83 % 0.0 mm 0.0 W/m2 CLR
00:27 12.8 °C 9.9 °C 1015.1 hPa SSW 27.8 km/h 27.8 km/h 83 % 0.0 mm 0.0 W/m2 CLR
00:32 13.3 °C 10.3 °C 1015.1 hPa SSW 27.8 km/h 27.8 km/h 82 % 0.0 mm 0.0 W/m2 CLR
00:37 12.8 °C 9.8 °C 1015.5 hPa SSW 27.8 km/h 27.8 km/h 82 % 0.0 mm 0.0 W/m2 CLR
00:42 12.8 °C 9.8 °C 1015.5 hPa SSW 30.6 km/h 30.6 km/h 82 % 0.0 mm 0.0 W/m2 CLR
00:47 12.8 °C 9.6 °C 1015.5 hPa SW 24.1 km/h 24.1 km/h 81 % 0.0 mm 0.0 W/m2 CLR
00:52 12.8 °C 9.6 °C 1015.5 hPa SW 31.5 km/h 31.5 km/h 81 % 0.0 mm 0.0 W/m2 CLR
00:57 12.8 °C 9.6 °C 1015.5 hPa SW 37.0 km/h 37.0 km/h 81 % 0.0 mm 0.0 W/m2 CLR
01:02 12.8 °C 9.4 °C 1015.5 hPa SW 31.5 km/h 31.5 km/h 80 % 0.0 mm 0.0 W/m2 CLR
01:07 12.8 °C 9.4 °C 1015.5 hPa SW 29.6 km/h 29.6 km/h 80 % 0.0 mm 0.0 W/m2 CLR
01:12 12.8 °C 9.6 °C 1015.5 hPa SW 29.6 km/h 29.6 km/h 81 % 0.0 mm 0.0 W/m2 CLR
01:17 12.8 °C 9.4 °C 1015.5 hPa SW 25.9 km/h 25.9 km/h 80 % 0.0 mm 0.0 W/m2 CLR
01:22 12.8 °C 9.4 °C 1015.5 hPa WSW 37.0 km/h 37.0 km/h 80 % 0.0 mm 0.0 W/m2 CLR
01:27 12.8 °C 9.4 °C 1015.8 hPa SW 27.8 km/h 27.8 km/h 80 % 0.0 mm 0.0 W/m2 CLR
01:32 12.8 °C 9.4 °C 1015.8 hPa SW 31.5 km/h 31.5 km/h 80 % 0.0 mm 0.0 W/m2 CLR
01:37 12.8 °C 9.4 °C 1015.8 hPa SW 32.2 km/h 32.2 km/h 80 % 0.0 mm 0.0 W/m2 CLR
01:42 12.8 °C 9.6 °C 1015.8 hPa SSW 42.6 km/h 42.6 km/h 81 % 0.0 mm 0.0 W/m2 CLR
01:47 12.8 °C 9.6 °C 1015.8 hPa SSW 32.2 km/h 32.2 km/h 81 % 0.0 mm 0.0 W/m2 CLR
01:52 12.8 °C 9.6 °C 1015.8 hPa SSW 35.2 km/h 35.2 km/h 81 % 0.0 mm 0.0 W/m2 CLR
01:57 12.8 °C 9.6 °C 1015.8 hPa SW 30.6 km/h 30.6 km/h 81 % 0.0 mm 0.0 W/m2 CLR
02:02 12.8 °C 9.6 °C 1015.8 hPa SSW 37.0 km/h 37.0 km/h 81 % 0.0 mm 0.0 W/m2 CLR
02:07 12.8 °C 9.8 °C 1015.8 hPa SSW 38.9 km/h 38.9 km/h 82 % 0.0 mm 0.0 W/m2 CLR
02:12 12.8 °C 9.8 °C 1015.8 hPa SW 37.0 km/h 37.0 km/h 82 % 0.0 mm 0.0 W/m2 CLR
02:17 12.8 °C 9.8 °C 1015.8 hPa SW 27.8 km/h 27.8 km/h 82 % 0.0 mm 0.0 W/m2 CLR
02:22 12.8 °C 9.6 °C 1015.8 hPa SW 35.2 km/h 35.2 km/h 81 % 0.0 mm 0.0 W/m2 CLR
02:27 12.2 °C 9.1 °C 1015.8 hPa SW 48.1 km/h 48.1 km/h 81 % 0.0 mm 0.0 W/m2 CLR
02:32 12.2 °C 9.1 °C 1015.8 hPa SSW 38.9 km/h 38.9 km/h 81 % 0.0 mm 0.0 W/m2 CLR
02:37 12.2 °C 9.1 °C 1015.8 hPa SW 29.6 km/h 29.6 km/h 81 % 0.0 mm 0.0 W/m2 CLR
02:42 12.8 °C 9.6 °C 1015.8 hPa SW 40.2 km/h 40.2 km/h 81 % 0.0 mm 0.0 W/m2 CLR
02:47 12.8 °C 9.4 °C 1015.8 hPa SW 40.7 km/h 40.7 km/h 80 % 0.0 mm 0.0 W/m2 CLR
02:53 12.2 °C 8.9 °C 1015.8 hPa SW 31.5 km/h 31.5 km/h 80 % 0.0 mm 0.0 W/m2 CLR
02:58 12.2 °C 8.9 °C 1016.1 hPa SW 31.5 km/h 31.5 km/h 80 % 0.0 mm 0.0 W/m2 CLR
03:03 12.2 °C 8.7 °C 1016.1 hPa SSW 33.3 km/h 33.3 km/h 79 % 0.0 mm 0.0 W/m2 CLR
03:08 12.8 °C 9.2 °C 1016.1 hPa SW 40.7 km/h 40.7 km/h 79 % 0.0 mm 0.0 W/m2 CLR
03:13 12.8 °C 9.2 °C 1016.1 hPa SSW 40.2 km/h 40.2 km/h 79 % 0.0 mm 0.0 W/m2 CLR
03:18 12.8 °C 9.2 °C 1016.1 hPa SW 37.0 km/h 37.0 km/h 79 % 0.0 mm 0.0 W/m2 CLR
03:23 12.8 °C 9.2 °C 1016.1 hPa SW 37.0 km/h 37.0 km/h 79 % 0.0 mm 0.0 W/m2 CLR
03:28 12.8 °C 9.2 °C 1016.1 hPa SW 31.5 km/h 31.5 km/h 79 % 0.0 mm 0.0 W/m2 CLR
03:38 12.2 °C 8.7 °C 1016.1 hPa SSW 35.2 km/h 35.2 km/h 79 % 0.0 mm 0.0 W/m2 CLR
03:43 12.2 °C 8.7 °C 1016.1 hPa SSW 33.3 km/h 33.3 km/h 79 % 0.0 mm 0.0 W/m2 CLR
03:48 12.2 °C 8.5 °C 1016.1 hPa SW 35.2 km/h 35.2 km/h 78 % 0.0 mm 0.0 W/m2 CLR
03:53 12.8 °C 9.2 °C 1016.1 hPa SW 35.2 km/h 35.2 km/h 79 % 0.0 mm 0.0 W/m2 CLR
03:58 12.8 °C 9.2 °C 1016.1 hPa SW 37.0 km/h 37.0 km/h 79 % 0.0 mm 0.0 W/m2 CLR
04:03 12.8 °C 9.1 °C 1016.1 hPa SW 42.6 km/h 42.6 km/h 78 % 0.0 mm 0.0 W/m2 CLR
04:08 12.8 °C 9.1 °C 1016.1 hPa SW 38.9 km/h 38.9 km/h 78 % 0.0 mm 0.0 W/m2 CLR
04:13 12.8 °C 9.1 °C 1016.1 hPa SW 37.0 km/h 37.0 km/h 78 % 0.0 mm 0.0 W/m2 CLR
04:19 12.8 °C 9.1 °C 1016.5 hPa SW 35.4 km/h 35.4 km/h 78 % 0.0 mm 0.0 W/m2 CLR
04:21 12.8 °C 9.1 °C 1016.1 hPa SSW 33.3 km/h 33.3 km/h 78 % 0.0 mm 0.0 W/m2 CLR
04:23 12.8 °C 9.1 °C 1016.5 hPa SW 37.0 km/h 37.0 km/h 78 % 0.0 mm 0.0 W/m2 CLR
04:25 12.8 °C 9.1 °C 1016.5 hPa SW 42.6 km/h 42.6 km/h 78 % 0.0 mm 0.0 W/m2 CLR
04:27 12.8 °C 9.1 °C 1016.5 hPa SW 37.0 km/h 37.0 km/h 78 % 0.0 mm 0.0 W/m2 CLR
04:29 12.8 °C 9.1 °C 1016.1 hPa WSW 43.4 km/h 43.4 km/h 78 % 0.0 mm 0.0 W/m2 CLR
04:32 12.8 °C 9.1 °C 1016.1 hPa SW 40.7 km/h 40.7 km/h 78 % 0.3 mm 0.0 W/m2 RA
04:37 12.8 °C 9.1 °C 1016.5 hPa SW 37.0 km/h 37.0 km/h 78 % 0.3 mm 0.0 W/m2 CLR
04:38 12.8 °C 9.1 °C 1016.5 hPa SW 29.6 km/h 29.6 km/h 78 % 0.3 mm 0.0 W/m2 CLR
04:43 12.8 °C 9.1 °C 1016.5 hPa WSW 40.7 km/h 40.7 km/h 78 % 0.3 mm 0.0 W/m2 CLR
04:48 12.8 °C 9.1 °C 1016.5 hPa SW 38.9 km/h 38.9 km/h 78 % 0.3 mm 0.0 W/m2 CLR
04:53 12.8 °C 9.1 °C 1016.5 hPa WSW 44.4 km/h 44.4 km/h 78 % 0.3 mm 0.0 W/m2 CLR
04:58 12.8 °C 9.1 °C 1016.8 hPa SW 29.6 km/h 29.6 km/h 78 % 0.3 mm 0.0 W/m2 CLR
05:03 12.8 °C 9.1 °C 1016.8 hPa SW 31.5 km/h 31.5 km/h 78 % 0.3 mm 0.0 W/m2 CLR
05:08 12.8 °C 9.1 °C 1016.8 hPa WSW 44.4 km/h 44.4 km/h 78 % 0.3 mm 0.0 W/m2 CLR
05:13 12.8 °C 8.8 °C 1017.2 hPa SW 35.2 km/h 35.2 km/h 77 % 0.3 mm 0.0 W/m2 CLR
05:18 12.8 °C 8.8 °C 1017.2 hPa SW 37.0 km/h 37.0 km/h 77 % 0.3 mm 0.0 W/m2 CLR
05:28 12.8 °C 8.8 °C 1017.2 hPa SW 31.5 km/h 31.5 km/h 77 % 0.3 mm 0.0 W/m2 CLR
05:33 12.2 °C 8.3 °C 1017.5 hPa SW 38.9 km/h 38.9 km/h 77 % 0.0 mm 0.0 W/m2 CLR
05:38 12.8 °C 8.7 °C 1017.5 hPa WSW 33.8 km/h 33.8 km/h 76 % 0.0 mm 0.0 W/m2 CLR
05:43 12.8 °C 8.7 °C 1017.5 hPa WSW 31.5 km/h 31.5 km/h 76 % 0.0 mm 0.0 W/m2 CLR
05:48 12.8 °C 8.7 °C 1017.5 hPa SW 42.6 km/h 42.6 km/h 76 % 0.0 mm 0.0 W/m2 CLR
05:53 12.2 °C 8.1 °C 1017.5 hPa SSW 31.5 km/h 31.5 km/h 76 % 0.0 mm 0.0 W/m2 CLR
05:58 12.2 °C 8.1 °C 1017.5 hPa WSW 31.5 km/h 31.5 km/h 76 % 0.0 mm 0.0 W/m2 CLR
06:03 12.2 °C 8.1 °C 1017.5 hPa SW 38.9 km/h 38.9 km/h 76 % 0.0 mm 0.0 W/m2 CLR
06:08 12.2 °C 8.1 °C 1017.5 hPa West 43.4 km/h 43.4 km/h 76 % 0.0 mm 0.0 W/m2 CLR
06:13 12.2 °C 7.9 °C 1017.5 hPa SSW 46.3 km/h 46.3 km/h 75 % 0.0 mm 0.0 W/m2 CLR
06:18 12.2 °C 7.9 °C 1017.5 hPa WSW 43.4 km/h 43.4 km/h 75 % 0.0 mm 0.0 W/m2 CLR
06:23 12.2 °C 7.9 °C 1017.5 hPa SW 38.9 km/h 38.9 km/h 75 % 0.0 mm 0.0 W/m2 CLR
06:28 12.2 °C 7.7 °C 1017.8 hPa SW 53.7 km/h 53.7 km/h 74 % 0.0 mm 0.0 W/m2 CLR
06:33 12.2 °C 7.7 °C 1017.5 hPa SW 42.6 km/h 42.6 km/h 74 % 0.0 mm 0.0 W/m2 CLR
06:38 12.2 °C 7.7 °C 1017.8 hPa SW 46.3 km/h 46.3 km/h 74 % 0.0 mm 0.0 W/m2 CLR
06:43 12.2 °C 7.7 °C 1018.2 hPa SW 38.6 km/h 38.6 km/h 74 % 0.0 mm 0.0 W/m2 CLR
06:48 12.2 °C 7.7 °C 1017.8 hPa SW 40.7 km/h 40.7 km/h 74 % 0.0 mm 0.0 W/m2 CLR
06:53 12.2 °C 7.5 °C 1017.8 hPa SW 48.1 km/h 48.1 km/h 73 % 0.0 mm 0.0 W/m2 CLR
06:58 12.2 °C 7.5 °C 1017.8 hPa SW 48.1 km/h 48.1 km/h 73 % 0.0 mm 0.0 W/m2 CLR
07:03 12.2 °C 7.5 °C 1018.2 hPa WSW 51.8 km/h 51.8 km/h 73 % 0.0 mm 0.0 W/m2 CLR
07:08 12.2 °C 7.5 °C 1018.2 hPa SW 37.0 km/h 37.0 km/h 73 % 0.0 mm 0.0 W/m2 CLR
07:13 11.7 °C 7.0 °C 1018.2 hPa SW 35.4 km/h 35.4 km/h 73 % 0.0 mm 0.0 W/m2 CLR
07:18 11.7 °C 7.0 °C 1018.2 hPa SSW 31.5 km/h 31.5 km/h 73 % 0.0 mm 0.0 W/m2 CLR
07:23 11.7 °C 7.0 °C 1018.2 hPa WSW 46.3 km/h 46.3 km/h 73 % 0.0 mm 0.0 W/m2 CLR
07:28 11.7 °C 7.0 °C 1018.5 hPa SW 51.8 km/h 51.8 km/h 73 % 0.0 mm 0.0 W/m2 OVC
07:33 11.7 °C 7.2 °C 1018.8 hPa SW 48.1 km/h 48.1 km/h 74 % 0.0 mm 0.0 W/m2 OVC
07:38 11.7 °C 7.2 °C 1018.8 hPa WSW 33.3 km/h 33.3 km/h 74 % 0.0 mm 5.0 W/m2 OVC
07:43 11.7 °C 7.2 °C 1018.8 hPa SW 46.3 km/h 46.3 km/h 74 % 0.0 mm 7.0 W/m2 OVC
07:48 11.7 °C 7.2 °C 1018.8 hPa SSW 38.9 km/h 38.9 km/h 74 % 0.0 mm 7.0 W/m2 OVC
07:53 11.7 °C 7.2 °C 1019.2 hPa SSW 37.0 km/h 37.0 km/h 74 % 0.0 mm 9.0 W/m2 OVC
07:58 11.7 °C 7.2 °C 1019.2 hPa SW 33.3 km/h 33.3 km/h 74 % 0.0 mm 9.0 W/m2 OVC
08:03 11.7 °C 7.2 °C 1019.5 hPa SW 37.0 km/h 37.0 km/h 74 % 0.0 mm 11.0 W/m2 OVC
08:08 11.7 °C 7.2 °C 1019.5 hPa SSW 40.7 km/h 40.7 km/h 74 % 0.0 mm 11.0 W/m2 OVC
08:13 11.7 °C 7.0 °C 1019.9 hPa SSW 35.2 km/h 35.2 km/h 73 % 0.0 mm 12.0 W/m2 OVC
08:18 11.7 °C 7.0 °C 1019.9 hPa SW 42.6 km/h 42.6 km/h 73 % 0.0 mm 12.0 W/m2 OVC
08:23 11.7 °C 7.0 °C 1019.9 hPa SW 35.2 km/h 35.2 km/h 73 % 0.0 mm 14.0 W/m2 OVC
08:28 11.1 °C 6.7 °C 1019.9 hPa SW 35.2 km/h 35.2 km/h 74 % 0.0 mm 14.0 W/m2 OVC
08:34 11.1 °C 6.7 °C 1019.9 hPa WSW 42.6 km/h 42.6 km/h 74 % 0.0 mm 16.0 W/m2 OVC
08:39 11.1 °C 6.7 °C 1020.2 hPa WSW 42.6 km/h 42.6 km/h 74 % 0.0 mm 19.0 W/m2 OVC
08:44 11.1 °C 6.7 °C 1020.2 hPa SW 33.8 km/h 33.8 km/h 74 % 0.0 mm 28.0 W/m2 BKN
08:49 11.1 °C 6.7 °C 1020.2 hPa SSW 50.0 km/h 50.0 km/h 74 % 0.0 mm 77.0 W/m2 BKN
08:54 11.7 °C 7.0 °C 1020.2 hPa WSW 42.6 km/h 42.6 km/h 73 % 0.0 mm 58.0 W/m2 BKN
08:59 11.7 °C 7.0 °C 1020.5 hPa WSW 55.5 km/h 55.5 km/h 73 % 0.0 mm 144.0 W/m2 BKN
09:04 11.7 °C 7.0 °C 1020.5 hPa SSW 31.5 km/h 32.7 km/h 73 % 0.0 mm 195.0 W/m2 FEW
09:09 11.7 °C 6.8 °C 1020.5 hPa SSW 37.0 km/h 37.0 km/h 72 % 0.0 mm 156.0 W/m2 CLR
09:14 11.7 °C 6.4 °C 1020.9 hPa SW 46.3 km/h 46.3 km/h 70 % 0.0 mm 220.0 W/m2 CLR
09:19 12.2 °C 6.9 °C 1020.9 hPa SW 46.3 km/h 46.3 km/h 70 % 0.0 mm 192.0 W/m2 CLR
09:24 12.2 °C 6.7 °C 1020.9 hPa SW 38.9 km/h 38.9 km/h 69 % 0.0 mm 176.0 W/m2 CLR
09:29 12.2 °C 6.7 °C 1021.2 hPa SW 27.8 km/h 27.8 km/h 69 % 0.0 mm 232.0 W/m2 CLR
09:34 12.2 °C 6.5 °C 1021.2 hPa SSW 45.1 km/h 45.1 km/h 68 % 0.0 mm 279.0 W/m2 CLR
09:39 12.2 °C 6.5 °C 1021.6 hPa WSW 42.6 km/h 42.6 km/h 68 % 0.0 mm 290.0 W/m2 CLR
09:44 12.2 °C 6.5 °C 1021.6 hPa WSW 42.6 km/h 42.6 km/h 68 % 0.0 mm 301.0 W/m2 CLR
09:49 12.8 °C 6.8 °C 1021.6 hPa WSW 42.6 km/h 42.6 km/h 67 % 0.0 mm 313.0 W/m2 CLR
09:54 12.8 °C 6.8 °C 1021.2 hPa SW 33.3 km/h 33.3 km/h 67 % 0.0 mm 322.0 W/m2 CLR
09:59 12.8 °C 6.3 °C 1021.2 hPa SW 42.6 km/h 42.6 km/h 65 % 0.0 mm 339.0 W/m2 CLR
10:04 12.8 °C 6.3 °C 1021.2 hPa WSW 48.1 km/h 48.1 km/h 65 % 0.0 mm 348.0 W/m2 CLR
10:09 12.8 °C 6.1 °C 1021.2 hPa SW 40.2 km/h 40.2 km/h 64 % 0.0 mm 360.0 W/m2 CLR
10:14 13.3 °C 6.4 °C 1021.2 hPa WSW 51.8 km/h 51.8 km/h 63 % 0.0 mm 371.0 W/m2 CLR
10:19 13.3 °C 6.2 °C 1021.2 hPa SW 61.1 km/h 61.1 km/h 62 % 0.0 mm 387.0 W/m2 CLR
10:24 13.3 °C 6.4 °C 1021.6 hPa SW 42.6 km/h 42.6 km/h 63 % 0.0 mm 397.0 W/m2 CLR
10:29 13.3 °C 6.4 °C 1021.6 hPa WSW 44.4 km/h 44.4 km/h 63 % 0.0 mm 406.0 W/m2 CLR
10:34 13.3 °C 6.2 °C 1021.6 hPa WSW 57.4 km/h 57.4 km/h 62 % 0.0 mm 417.0 W/m2 CLR
10:39 13.3 °C 6.2 °C 1021.6 hPa SW 54.7 km/h 54.7 km/h 62 % 0.0 mm 427.0 W/m2 CLR
10:44 13.3 °C 6.2 °C 1021.2 hPa SW 54.7 km/h 54.7 km/h 62 % 0.0 mm 438.0 W/m2 CLR
10:49 13.3 °C 6.2 °C 1021.6 hPa WSW 43.4 km/h 43.4 km/h 62 % 0.0 mm 446.0 W/m2 CLR
10:54 13.9 °C 6.5 °C 1021.6 hPa SW 50.0 km/h 50.0 km/h 61 % 0.0 mm 454.0 W/m2 CLR
10:59 13.9 °C 6.5 °C 1021.6 hPa WSW 50.0 km/h 50.0 km/h 61 % 0.0 mm 462.0 W/m2 CLR
11:04 13.9 °C 6.5 °C 1021.6 hPa SW 38.9 km/h 38.9 km/h 61 % 0.0 mm 468.0 W/m2 CLR
11:09 13.9 °C 6.0 °C 1021.6 hPa SW 51.8 km/h 51.8 km/h 59 % 0.0 mm 480.0 W/m2 CLR
11:14 13.9 °C 6.0 °C 1021.9 hPa SW 59.2 km/h 59.2 km/h 59 % 0.0 mm 503.0 W/m2 CLR
11:19 13.9 °C 6.0 °C 1021.6 hPa West 42.6 km/h 42.6 km/h 59 % 0.0 mm 503.0 W/m2 CLR
11:24 14.4 °C 6.3 °C 1021.6 hPa SW 42.6 km/h 42.6 km/h 58 % 0.0 mm 508.0 W/m2 CLR
11:29 14.4 °C 6.3 °C 1021.6 hPa WSW 42.6 km/h 42.6 km/h 58 % 0.0 mm 496.0 W/m2 CLR
11:34 14.4 °C 6.3 °C 1021.6 hPa WSW 40.7 km/h 40.7 km/h 58 % 0.0 mm 527.0 W/m2 CLR
11:39 14.4 °C 6.0 °C 1021.6 hPa SW 51.8 km/h 51.8 km/h 57 % 0.0 mm 538.0 W/m2 CLR
11:49 14.4 °C 6.3 °C 1021.6 hPa SW 53.1 km/h 53.1 km/h 58 % 0.0 mm 536.0 W/m2 CLR
11:54 14.4 °C 6.3 °C 1021.6 hPa SW 51.8 km/h 51.8 km/h 58 % 0.0 mm 550.0 W/m2 CLR
11:59 14.4 °C 6.0 °C 1021.2 hPa SW 48.1 km/h 48.1 km/h 57 % 0.0 mm 568.0 W/m2 CLR
12:04 15.0 °C 6.6 °C 1021.2 hPa WSW 53.1 km/h 53.1 km/h 57 % 0.0 mm 547.0 W/m2 CLR
12:09 15.0 °C 6.6 °C 1021.2 hPa West 59.2 km/h 59.2 km/h 57 % 0.0 mm 548.0 W/m2 CLR
12:14 15.0 °C 6.6 °C 1021.2 hPa WSW 61.1 km/h 61.1 km/h 57 % 0.0 mm 548.0 W/m2 CLR
12:19 15.0 °C 6.6 °C 1021.6 hPa SW 68.5 km/h 68.5 km/h 57 % 0.0 mm 552.0 W/m2 CLR
12:24 15.0 °C 6.3 °C 1021.2 hPa WSW 62.9 km/h 62.9 km/h 56 % 0.0 mm 548.0 W/m2 CLR
12:29 15.0 °C 6.6 °C 1021.2 hPa SW 50.0 km/h 50.0 km/h 57 % 0.0 mm 555.0 W/m2 CLR
12:34 15.0 °C 6.6 °C 1021.2 hPa SW 64.8 km/h 64.8 km/h 57 % 0.0 mm 561.0 W/m2 CLR
12:39 15.0 °C 6.6 °C 1021.2 hPa SW 46.3 km/h 46.3 km/h 57 % 0.0 mm 555.0 W/m2 CLR
12:44 15.0 °C 6.3 °C 1021.2 hPa SW 57.9 km/h 57.9 km/h 56 % 0.0 mm 564.0 W/m2 CLR
12:49 15.6 °C 7.1 °C 1020.9 hPa SSW 51.8 km/h 51.8 km/h 57 % 0.0 mm 605.0 W/m2 CLR
12:54 15.0 °C 6.3 °C 1021.2 hPa SW 57.4 km/h 57.4 km/h 56 % 0.0 mm 606.0 W/m2 CLR
12:59 15.0 °C 6.3 °C 1021.2 hPa WSW 53.7 km/h 53.7 km/h 56 % 0.0 mm 596.0 W/m2 CLR
13:04 15.6 °C 6.8 °C 1021.2 hPa SW 42.6 km/h 42.6 km/h 56 % 0.0 mm 715.0 W/m2 CLR
13:05 15.6 °C 6.8 °C 1021.2 hPa SW 42.6 km/h 42.6 km/h 56 % 0.0 mm 712.0 W/m2 CLR
13:10 15.6 °C 6.3 °C 1021.2 hPa SW 62.9 km/h 62.9 km/h 54 % 0.0 mm 603.0 W/m2 CLR
13:15 15.6 °C 6.6 °C 1021.2 hPa WSW 46.3 km/h 46.3 km/h 55 % 0.0 mm 629.0 W/m2 CLR
13:20 15.6 °C 6.6 °C 1021.2 hPa West 46.3 km/h 46.3 km/h 55 % 0.0 mm 640.0 W/m2 CLR
13:25 15.6 °C 6.3 °C 1021.2 hPa WSW 51.8 km/h 51.8 km/h 54 % 0.0 mm 698.0 W/m2 CLR
13:30 15.0 °C 6.0 °C 1021.6 hPa SW 55.5 km/h 55.5 km/h 55 % 0.0 mm 285.0 W/m2 CLR
13:35 15.0 °C 6.0 °C 1021.2 hPa SW 51.8 km/h 51.8 km/h 55 % 0.0 mm 339.0 W/m2 CLR
13:40 15.0 °C 6.0 °C 1021.2 hPa WSW 33.3 km/h 33.3 km/h 55 % 0.0 mm 624.0 W/m2 CLR
13:45 15.6 °C 6.6 °C 1021.2 hPa WSW 44.4 km/h 44.4 km/h 55 % 0.0 mm 473.0 W/m2 CLR
13:50 16.1 °C 6.8 °C 1021.2 hPa SSW 46.3 km/h 46.3 km/h 54 % 0.0 mm 578.0 W/m2 CLR
13:55 16.1 °C 6.8 °C 1021.2 hPa WSW 53.1 km/h 53.1 km/h 54 % 0.0 mm 534.0 W/m2 CLR
14:00 15.6 °C 6.3 °C 1021.2 hPa WSW 53.7 km/h 53.7 km/h 54 % 0.0 mm 527.0 W/m2 CLR
14:05 15.6 °C 6.3 °C 1021.2 hPa SW 37.0 km/h 37.0 km/h 54 % 0.0 mm 548.0 W/m2 CLR
14:10 16.1 °C 6.5 °C 1021.2 hPa SW 40.2 km/h 40.2 km/h 53 % 0.0 mm 573.0 W/m2 CLR
14:15 16.1 °C 6.5 °C 1021.2 hPa SW 37.0 km/h 37.0 km/h 53 % 0.0 mm 132.0 W/m2 CLR
14:20 15.0 °C 5.8 °C 1021.2 hPa SW 40.2 km/h 40.2 km/h 54 % 0.0 mm 610.0 W/m2 CLR
14:25 15.0 °C 6.0 °C 1021.2 hPa SW 42.6 km/h 42.6 km/h 55 % 0.0 mm 244.0 W/m2 CLR
14:30 15.0 °C 6.0 °C 1021.2 hPa SW 24.1 km/h 24.1 km/h 55 % 0.0 mm 605.0 W/m2 CLR
14:35 16.1 °C 6.5 °C 1021.2 hPa SSW 50.0 km/h 50.0 km/h 53 % 0.0 mm 536.0 W/m2 CLR
14:40 15.6 °C 6.3 °C 1021.2 hPa SW 40.7 km/h 40.7 km/h 54 % 0.0 mm 482.0 W/m2 CLR
14:45 15.6 °C 6.0 °C 1020.9 hPa WSW 46.3 km/h 46.3 km/h 53 % 0.0 mm 434.0 W/m2 CLR
14:50 15.6 °C 6.0 °C 1020.9 hPa SW 48.1 km/h 48.1 km/h 53 % 0.0 mm 457.0 W/m2 CLR
14:55 15.6 °C 6.3 °C 1020.9 hPa WSW 35.2 km/h 35.2 km/h 54 % 0.0 mm 454.0 W/m2 CLR
15:00 15.6 °C 6.0 °C 1020.9 hPa West 53.7 km/h 53.7 km/h 53 % 0.0 mm 420.0 W/m2 CLR
15:05 15.6 °C 6.3 °C 1020.9 hPa SW 50.0 km/h 50.0 km/h 54 % 0.0 mm 404.0 W/m2 CLR
15:10 15.6 °C 6.0 °C 1020.5 hPa WSW 33.3 km/h 33.3 km/h 53 % 0.0 mm 388.0 W/m2 CLR
15:15 15.6 °C 5.4 °C 1020.9 hPa SW 68.5 km/h 68.5 km/h 51 % 0.0 mm 369.0 W/m2 CLR
15:20 15.0 °C 5.2 °C 1020.5 hPa West 46.3 km/h 46.3 km/h 52 % 0.0 mm 364.0 W/m2 CLR
15:25 15.0 °C 5.5 °C 1020.9 hPa SW 50.0 km/h 50.0 km/h 53 % 0.0 mm 352.0 W/m2 CLR
15:30 15.0 °C 5.2 °C 1020.9 hPa West 55.5 km/h 55.5 km/h 52 % 0.0 mm 339.0 W/m2 CLR
15:35 15.0 °C 5.5 °C 1020.5 hPa SW 42.6 km/h 42.6 km/h 53 % 0.0 mm 323.0 W/m2 CLR
15:40 15.0 °C 5.5 °C 1020.5 hPa SW 45.1 km/h 45.1 km/h 53 % 0.0 mm 313.0 W/m2 CLR
15:45 15.0 °C 5.5 °C 1020.5 hPa SW 48.1 km/h 48.1 km/h 53 % 0.0 mm 302.0 W/m2 CLR
15:50 15.0 °C 5.5 °C 1020.9 hPa WSW 35.2 km/h 35.2 km/h 53 % 0.0 mm 294.0 W/m2 CLR
15:55 15.0 °C 5.5 °C 1020.9 hPa SW 48.1 km/h 48.1 km/h 53 % 0.0 mm 278.0 W/m2 CLR
16:00 15.0 °C 5.8 °C 1020.9 hPa SW 59.5 km/h 59.5 km/h 54 % 0.0 mm 264.0 W/m2 CLR
16:05 14.4 °C 5.0 °C 1020.9 hPa SW 59.2 km/h 59.2 km/h 53 % 0.0 mm 246.0 W/m2 CLR
16:10 14.4 °C 5.2 °C 1020.9 hPa WSW 64.8 km/h 64.8 km/h 54 % 0.0 mm 236.0 W/m2 CLR
16:15 14.4 °C 5.5 °C 1020.9 hPa SW 61.1 km/h 61.1 km/h 55 % 0.0 mm 213.0 W/m2 CLR
16:20 14.4 °C 5.5 °C 1020.9 hPa SSW 42.6 km/h 42.6 km/h 55 % 0.0 mm 202.0 W/m2 CLR
16:25 14.4 °C 5.5 °C 1020.9 hPa WSW 55.5 km/h 55.5 km/h 55 % 0.0 mm 181.0 W/m2 CLR
16:26 14.4 °C 5.5 °C 1021.2 hPa NW 44.4 km/h 44.4 km/h 55 % 0.0 mm 181.0 W/m2 CLR
16:31 13.9 °C 5.0 °C 1021.2 hPa WSW 66.6 km/h 66.6 km/h 55 % 0.0 mm 162.0 W/m2 CLR
16:36 13.9 °C 5.5 °C 1021.2 hPa SW 53.7 km/h 53.7 km/h 57 % 0.0 mm 149.0 W/m2 CLR
16:41 13.9 °C 5.5 °C 1021.2 hPa SW 37.0 km/h 37.0 km/h 57 % 0.0 mm 130.0 W/m2 CLR
16:46 13.3 °C 5.2 °C 1021.2 hPa SW 51.8 km/h 51.8 km/h 58 % 0.0 mm 118.0 W/m2 CLR
16:51 13.3 °C 5.2 °C 1021.2 hPa WSW 41.8 km/h 41.8 km/h 58 % 0.0 mm 98.0 W/m2 CLR
16:56 13.3 °C 5.2 °C 1021.2 hPa WSW 55.5 km/h 55.5 km/h 58 % 0.0 mm 84.0 W/m2 FEW
17:01 13.3 °C 5.2 °C 1021.6 hPa SW 48.1 km/h 48.1 km/h 58 % 0.0 mm 67.0 W/m2 FEW
17:06 13.3 °C 5.2 °C 1021.2 hPa WSW 44.4 km/h 44.4 km/h 58 % 0.0 mm 56.0 W/m2 SCT
17:11 13.3 °C 5.5 °C 1021.2 hPa SW 40.7 km/h 40.7 km/h 59 % 0.0 mm 46.0 W/m2 SCT
17:16 12.8 °C 4.9 °C 1021.6 hPa SW 51.8 km/h 51.8 km/h 59 % 0.0 mm 35.0 W/m2 BKN
17:21 12.8 °C 4.9 °C 1021.6 hPa SW 44.4 km/h 44.4 km/h 59 % 0.0 mm 25.0 W/m2 BKN
17:26 12.8 °C 4.9 °C 1021.6 hPa WSW 55.5 km/h 55.5 km/h 59 % 0.0 mm 18.0 W/m2 BKN
17:31 12.8 °C 4.9 °C 1021.6 hPa WSW 55.5 km/h 55.5 km/h 59 % 0.0 mm 12.0 W/m2 BKN
17:36 12.8 °C 5.2 °C 1021.6 hPa WSW 56.3 km/h 56.3 km/h 60 % 0.0 mm 11.0 W/m2 BKN
17:41 12.8 °C 5.4 °C 1021.6 hPa WSW 46.3 km/h 46.3 km/h 61 % 0.0 mm 9.0 W/m2 BKN
17:46 12.8 °C 5.4 °C 1021.9 hPa SW 42.6 km/h 42.6 km/h 61 % 0.0 mm 7.0 W/m2 BKN
17:51 12.2 °C 4.9 °C 1021.9 hPa SSW 43.4 km/h 43.4 km/h 61 % 0.0 mm 5.0 W/m2 OVC
17:56 12.2 °C 4.9 °C 1021.6 hPa WSW 40.7 km/h 40.7 km/h 61 % 0.0 mm 0.0 W/m2 OVC
18:01 12.2 °C 5.2 °C 1021.6 hPa SW 48.1 km/h 48.1 km/h 62 % 0.0 mm 0.0 W/m2 CLR
18:06 12.2 °C 5.2 °C 1021.6 hPa SW 42.6 km/h 42.6 km/h 62 % 0.0 mm 0.0 W/m2 CLR
18:11 12.2 °C 5.2 °C 1021.6 hPa West 42.6 km/h 42.6 km/h 62 % 0.0 mm 0.0 W/m2 CLR
18:16 12.2 °C 5.2 °C 1021.9 hPa SW 38.9 km/h 38.9 km/h 62 % 0.0 mm 0.0 W/m2 CLR
18:21 11.7 °C 4.8 °C 1021.9 hPa SW 48.1 km/h 48.1 km/h 63 % 0.0 mm 0.0 W/m2 CLR
18:26 11.7 °C 4.8 °C 1021.9 hPa West 42.6 km/h 42.6 km/h 63 % 0.0 mm 0.0 W/m2 CLR
18:31 11.7 °C 4.8 °C 1021.9 hPa WSW 42.6 km/h 42.6 km/h 63 % 0.0 mm 0.0 W/m2 CLR
18:36 11.7 °C 4.8 °C 1021.9 hPa WSW 44.4 km/h 44.4 km/h 63 % 0.0 mm 0.0 W/m2 CLR
18:41 11.7 °C 4.8 °C 1021.9 hPa WSW 40.7 km/h 40.7 km/h 63 % 0.0 mm 0.0 W/m2 CLR
18:46 11.7 °C 5.1 °C 1021.9 hPa WSW 41.8 km/h 41.8 km/h 64 % 0.0 mm 0.0 W/m2 CLR
18:51 11.7 °C 5.1 °C 1022.2 hPa SW 48.1 km/h 48.1 km/h 64 % 0.0 mm 0.0 W/m2 CLR
18:56 11.7 °C 5.1 °C 1021.9 hPa WSW 33.3 km/h 33.3 km/h 64 % 0.0 mm 0.0 W/m2 CLR
19:01 11.7 °C 5.1 °C 1022.2 hPa WSW 40.7 km/h 40.7 km/h 64 % 0.0 mm 0.0 W/m2 CLR
19:07 11.7 °C 5.1 °C 1022.2 hPa West 48.3 km/h 48.3 km/h 64 % 0.0 mm 0.0 W/m2 CLR
19:12 11.7 °C 5.1 °C 1022.6 hPa WSW 42.6 km/h 42.6 km/h 64 % 0.0 mm 0.0 W/m2 CLR
19:17 11.7 °C 5.3 °C 1022.6 hPa WSW 42.6 km/h 42.6 km/h 65 % 0.0 mm 0.0 W/m2 CLR
19:22 11.7 °C 5.3 °C 1022.9 hPa SW 55.5 km/h 55.5 km/h 65 % 0.0 mm 0.0 W/m2 CLR
19:27 11.1 °C 5.0 °C 1022.9 hPa SSW 53.7 km/h 53.7 km/h 66 % 0.0 mm 0.0 W/m2 CLR
19:32 11.1 °C 5.0 °C 1022.9 hPa SW 35.2 km/h 35.2 km/h 66 % 0.0 mm 0.0 W/m2 CLR
19:37 11.1 °C 5.2 °C 1022.6 hPa SW 46.7 km/h 46.7 km/h 67 % 0.0 mm 0.0 W/m2 CLR
19:42 11.1 °C 5.2 °C 1022.9 hPa SW 50.0 km/h 50.0 km/h 67 % 0.0 mm 0.0 W/m2 CLR
19:47 11.1 °C 5.2 °C 1022.6 hPa SW 37.0 km/h 37.0 km/h 67 % 0.0 mm 0.0 W/m2 CLR
19:52 11.1 °C 5.2 °C 1022.9 hPa SW 53.7 km/h 53.7 km/h 67 % 0.0 mm 0.0 W/m2 CLR
19:57 11.1 °C 5.2 °C 1022.9 hPa SW 51.8 km/h 51.8 km/h 67 % 0.0 mm 0.0 W/m2 CLR
20:02 11.1 °C 5.2 °C 1022.9 hPa SSW 42.6 km/h 42.6 km/h 67 % 0.0 mm 0.0 W/m2 CLR
20:07 11.1 °C 5.2 °C 1022.9 hPa WSW 48.1 km/h 48.1 km/h 67 % 0.0 mm 0.0 W/m2 CLR
20:12 11.1 °C 5.2 °C 1022.9 hPa SW 41.8 km/h 41.8 km/h 67 % 0.0 mm 0.0 W/m2 CLR
20:17 10.6 °C 4.7 °C 1022.9 hPa WSW 44.4 km/h 44.4 km/h 67 % 0.0 mm 0.0 W/m2 CLR
20:22 10.6 °C 4.7 °C 1022.9 hPa WSW 44.4 km/h 44.4 km/h 67 % 0.0 mm 0.0 W/m2 CLR
20:27 10.6 °C 4.9 °C 1022.9 hPa SW 44.4 km/h 44.4 km/h 68 % 0.0 mm 0.0 W/m2 CLR
20:32 10.6 °C 4.7 °C 1023.2 hPa WSW 40.7 km/h 40.7 km/h 67 % 0.0 mm 0.0 W/m2 CLR
20:37 10.6 °C 4.9 °C 1023.2 hPa WSW 51.8 km/h 51.8 km/h 68 % 0.0 mm 0.0 W/m2 CLR
20:42 10.6 °C 4.9 °C 1023.2 hPa WSW 49.9 km/h 49.9 km/h 68 % 0.0 mm 0.0 W/m2 CLR
20:47 10.6 °C 4.9 °C 1023.2 hPa West 42.6 km/h 42.6 km/h 68 % 0.0 mm 0.0 W/m2 CLR
20:52 10.6 °C 4.9 °C 1023.2 hPa West 51.5 km/h 51.5 km/h 68 % 0.0 mm 0.0 W/m2 CLR
20:57 10.6 °C 4.9 °C 1022.9 hPa WSW 48.3 km/h 48.3 km/h 68 % 0.0 mm 0.0 W/m2 CLR
21:02 10.6 °C 4.9 °C 1023.2 hPa WSW 38.9 km/h 38.9 km/h 68 % 0.0 mm 0.0 W/m2 CLR
21:07 10.6 °C 4.9 °C 1022.9 hPa SW 42.6 km/h 42.6 km/h 68 % 0.0 mm 0.0 W/m2 CLR
21:12 10.6 °C 5.1 °C 1023.2 hPa WSW 40.7 km/h 40.7 km/h 69 % 0.0 mm 0.0 W/m2 CLR
21:17 10.6 °C 5.1 °C 1023.2 hPa SW 40.7 km/h 40.7 km/h 69 % 0.0 mm 0.0 W/m2 CLR
21:22 10.6 °C 5.1 °C 1023.2 hPa SW 42.6 km/h 42.6 km/h 69 % 0.0 mm 0.0 W/m2 CLR
21:28 10.6 °C 5.1 °C 1023.2 hPa SW 43.4 km/h 43.4 km/h 69 % 0.0 mm 0.0 W/m2 CLR
21:33 10.6 °C 5.1 °C 1023.2 hPa West 46.3 km/h 46.3 km/h 69 % 0.0 mm 0.0 W/m2 CLR
21:38 10.6 °C 5.1 °C 1023.2 hPa WSW 37.0 km/h 37.0 km/h 69 % 0.0 mm 0.0 W/m2 CLR
21:43 10.6 °C 4.9 °C 1023.2 hPa WSW 44.4 km/h 44.4 km/h 68 % 0.0 mm 0.0 W/m2
21:48 10.6 °C 4.9 °C 1023.2 hPa SW 40.7 km/h 40.7 km/h 68 % 0.0 mm 0.0 W/m2 CLR
21:53 10.6 °C 4.9 °C 1023.2 hPa SW 51.8 km/h 51.8 km/h 68 % 0.0 mm 0.0 W/m2 CLR
21:58 10.6 °C 4.9 °C 1023.6 hPa West 38.9 km/h 38.9 km/h 68 % 0.0 mm 0.0 W/m2 CLR
22:03 10.6 °C 4.9 °C 1023.6 hPa WSW 40.7 km/h 40.7 km/h 68 % 0.0 mm 0.0 W/m2 CLR
22:08 10.6 °C 4.9 °C 1023.6 hPa SW 48.1 km/h 48.1 km/h 68 % 0.0 mm 0.0 W/m2 CLR
22:13 10.6 °C 4.9 °C 1023.2 hPa WSW 50.0 km/h 50.0 km/h 68 % 0.0 mm 0.0 W/m2 CLR
22:18 10.6 °C 4.9 °C 1023.2 hPa SW 48.1 km/h 48.1 km/h 68 % 0.0 mm 0.0 W/m2 CLR
22:23 10.6 °C 4.9 °C 1023.6 hPa SW 46.3 km/h 46.3 km/h 68 % 0.0 mm 0.0 W/m2 CLR
22:33 10.6 °C 4.9 °C 1023.6 hPa SW 44.4 km/h 44.4 km/h 68 % 0.0 mm 0.0 W/m2 CLR
22:38 10.6 °C 4.9 °C 1023.2 hPa SW 55.5 km/h 55.5 km/h 68 % 0.0 mm 0.0 W/m2 CLR
22:43 10.6 °C 4.9 °C 1022.9 hPa WSW 59.2 km/h 59.2 km/h 68 % 0.0 mm 0.0 W/m2 CLR
22:48 10.6 °C 4.9 °C 1023.2 hPa SW 44.4 km/h 44.4 km/h 68 % 0.0 mm 0.0 W/m2 CLR
22:53 10.6 °C 4.9 °C 1023.6 hPa WSW 42.6 km/h 42.6 km/h 68 % 0.0 mm 0.0 W/m2 CLR
22:58 10.6 °C 4.9 °C 1023.6 hPa SW 31.5 km/h 31.5 km/h 68 % 0.0 mm 0.0 W/m2 CLR
23:03 10.0 °C 4.6 °C 1023.9 hPa WSW 31.5 km/h 31.5 km/h 69 % 0.0 mm 0.0 W/m2 CLR
23:08 10.0 °C 4.6 °C 1023.9 hPa WSW 40.7 km/h 40.7 km/h 69 % 0.0 mm 0.0 W/m2 CLR
23:13 10.6 °C 5.1 °C 1023.6 hPa SW 42.6 km/h 42.6 km/h 69 % 0.0 mm 0.0 W/m2 CLR
23:18 10.0 °C 4.6 °C 1023.6 hPa WSW 40.2 km/h 40.2 km/h 69 % 0.0 mm 0.0 W/m2 CLR
23:23 10.0 °C 4.6 °C 1023.2 hPa SW 44.4 km/h 44.4 km/h 69 % 0.0 mm 0.0 W/m2 CLR
23:28 10.0 °C 4.6 °C 1023.6 hPa WSW 48.1 km/h 48.1 km/h 69 % 0.0 mm 0.0 W/m2 CLR
23:33 10.0 °C 4.6 °C 1023.6 hPa SW 53.7 km/h 53.7 km/h 69 % 0.0 mm 0.0 W/m2 CLR
23:38 10.0 °C 4.8 °C 1023.2 hPa SW 53.7 km/h 53.7 km/h 70 % 0.0 mm 0.0 W/m2 CLR
23:43 10.0 °C 4.8 °C 1023.6 hPa SW 37.0 km/h 37.0 km/h 70 % 0.0 mm 0.0 W/m2 CLR
23:48 10.0 °C 5.0 °C 1023.2 hPa SW 38.9 km/h 38.9 km/h 71 % 0.0 mm 0.0 W/m2 CLR
23:53 10.0 °C 5.0 °C 1023.2 hPa SW 48.1 km/h 48.1 km/h 71 % 0.0 mm 0.0 W/m2 CLR
23:58 10.0 °C 5.0 °C 1023.2 hPa WSW 37.0 km/h 37.0 km/h 71 % 0.0 mm 0.0 W/m2 CLR
Lo Temps de Massalio
Compliments of Weather Underground - 1.25 mb